Terminal Aerodrome Forecast
Issued by NWS Amarillo, TX

Home | Current Version | Previous Version | Text Only | Print | Product List | Glossary On
Versions: 1 2 3 4 5 6 7 8 9 10 11 12 13 14 15 16 17
000
FTUS44 KAMA 080200 AAA
TAFGUY
TAF AMD
KGUY 080203Z 0802/0824 12005KT 6SM HZ FEW040 BKN100
     FM080600 VRB04KT 3SM HZ BKN008
     FM081500 17010KT P6SM BKN060=

USA.gov is the U.S. government's official web portal to all federal, state and local government web resources and services.